»·PEaware :: N416JK KBXK-KPSP

N416JK :: KBXK-KPSP

FLIGHT INFORMATION

Flight Status: Arrived
Operator: Privately registered:
United States
More flights under this callsign
Pilot: John K. (4202)
Aircraft: Unknown
(EPIC)
More flights by this aircraft type
Origin: KBXK Buckeye Mun
United States
Destination: KPSP Palm Springs Intl
United States
More flights between these airports :: More routes between these airports
Route: VICKO V16 PSP
File this flight plan on PilotEdge
Remarks:
Altitude:
(Current/Filed)
10,000ft
Speed:
(Current/Filed)
280kts
Departed: 01-Jul-19 08:06 AM
Arrived: 01-Jul-19 08:57 AM
Distance/Time
Traveled:
193nm/0:51
Distance/Time
To Go:
Arrived

Flight Plot

Page will automatically refresh every two minutes.

Flight plan parsing failed; only flown route is shown


Map Options




Map Legend


Flown Route
Filed Route
Departure Airport
Arrival Airport
Navaid (VOR, NDB)
Fix

Horizontal Profiles

Position Reports

Time Latitude Longitude Heading Altitude Ground
Speed
01-Jul-19 08:01 33.419950 -112.684061 358 1037ft 0kts
01-Jul-19 08:02 33.419950 -112.684061 358 1037ft 0kts
01-Jul-19 08:03 33.419950 -112.684061 358 1037ft 0kts
01-Jul-19 08:04 33.419950 -112.684061 358 1037ft 0kts
01-Jul-19 08:05 33.427147 -112.684942 0 1037ft 48kts
01-Jul-19 08:06 33.429634 -112.684793 250 1037ft 0kts
01-Jul-19 08:07 33.429634 -112.684793 250 1037ft 0kts
01-Jul-19 08:08 33.424666 -112.686099 184 1037ft 111kts
01-Jul-19 08:09 33.397651 -112.714787 284 3349ft 190kts
01-Jul-19 08:10 33.419820 -112.781205 291 5363ft 238kts
01-Jul-19 08:11 33.436464 -112.858966 278 7338ft 250kts
01-Jul-19 08:12 33.445446 -112.941496 277 9315ft 255kts
01-Jul-19 08:13 33.454354 -113.031165 277 9899ft 293kts
01-Jul-19 08:14 33.463964 -113.128860 276 9967ft 302kts
01-Jul-19 08:15 33.473634 -113.227517 276 9930ft 301kts
01-Jul-19 08:16 33.483032 -113.326185 276 9906ft 301kts
01-Jul-19 08:17 33.492417 -113.425816 276 9899ft 301kts
01-Jul-19 08:18 33.501613 -113.524331 276 9899ft 300kts
01-Jul-19 08:19 33.510712 -113.622646 276 9898ft 300kts
01-Jul-19 08:20 33.519742 -113.721087 276 9898ft 300kts
01-Jul-19 08:21 33.528695 -113.819556 276 9863ft 301kts
01-Jul-19 08:22 33.537693 -113.919439 276 9959ft 297kts
01-Jul-19 08:23 33.544813 -114.017170 275 9998ft 299kts
01-Jul-19 08:24 33.551803 -114.115465 275 10000ft 300kts
01-Jul-19 08:25 33.558930 -114.212568 274 10000ft 300kts
01-Jul-19 08:26 33.565826 -114.310848 274 10000ft 300kts
01-Jul-19 08:27 33.572711 -114.410751 274 10000ft 300kts
01-Jul-19 08:28 33.579372 -114.509656 274 10000ft 300kts
01-Jul-19 08:29 33.585948 -114.608338 274 10000ft 300kts
01-Jul-19 08:30 33.592486 -114.707352 274 9999ft 300kts
01-Jul-19 08:31 33.603534 -114.806480 281 9999ft 300kts
01-Jul-19 08:32 33.620175 -114.903489 281 9999ft 300kts
01-Jul-19 08:34 33.636697 -115.000736 281 9999ft 300kts
01-Jul-19 08:35 33.653065 -115.097612 281 9998ft 300kts
01-Jul-19 08:36 33.669490 -115.193329 281 10000ft 300kts
01-Jul-19 08:37 33.685996 -115.291695 281 10000ft 300kts
01-Jul-19 08:38 33.702172 -115.388862 281 10000ft 300kts
01-Jul-19 08:39 33.718276 -115.486130 281 9969ft 301kts
01-Jul-19 08:40 33.734358 -115.583758 281 9963ft 301kts
01-Jul-19 08:41 33.750475 -115.682113 281 9963ft 300kts
01-Jul-19 08:42 33.765578 -115.774762 281 9222ft 266kts
01-Jul-19 08:43 33.779128 -115.858298 281 7987ft 247kts
01-Jul-19 08:44 33.790897 -115.931128 281 7950ft 207kts
01-Jul-19 08:45 33.801167 -115.994945 281 7952ft 199kts
01-Jul-19 08:46 33.813924 -116.058622 280 7944ft 194kts
01-Jul-19 08:47 33.805022 -116.115959 266 8302ft 159kts
01-Jul-19 08:48 33.798852 -116.152747 253 8069ft 164kts
01-Jul-19 08:49 33.789284 -116.213280 261 6878ft 189kts
01-Jul-19 08:50 33.781320 -116.268244 261 5593ft 178kts
01-Jul-19 08:51 33.774135 -116.317301 260 4475ft 164kts
01-Jul-19 08:52 33.765847 -116.364290 259 3344ft 159kts
01-Jul-19 08:53 33.764718 -116.406773 278 2309ft 134kts
01-Jul-19 08:53 33.771778 -116.436898 286 1680ft 135kts
01-Jul-19 08:55 33.791424 -116.473467 315 1191ft 122kts
01-Jul-19 08:56 33.818175 -116.497517 322 618ft 124kts
01-Jul-19 08:56 33.832303 -116.510029 321 481ft 40kts
01-Jul-19 08:58 33.828153 -116.508306 138 481ft 23kts
01-Jul-19 08:58 33.825354 -116.509062 269 481ft 16kts

Navigation Log

Ident Type
Flight plan parsing failed, navigation log unavailable